createdAt,value
2023-01-28T00:00:10.151Z,0.10
2023-01-28T00:02:37.390Z,0.20
2023-01-28T00:05:05.185Z,0.30
2023-01-28T00:07:32.895Z,0.30
2023-01-28T00:10:00.294Z,0.30
2023-01-28T00:12:27.636Z,0.30
2023-01-28T00:14:54.855Z,0.30
2023-01-28T00:17:22.090Z,0.30
2023-01-28T00:19:49.377Z,0.30
2023-01-28T00:22:16.914Z,0.20
2023-01-28T00:24:44.683Z,0.10
2023-01-28T00:27:13.046Z,0.10
2023-01-28T00:29:40.387Z,0.10
2023-01-28T00:32:08.288Z,0.10
2023-01-28T00:34:35.569Z,0.10
2023-01-28T00:37:02.939Z,0.10
2023-01-28T00:39:30.313Z,0.10
2023-01-28T00:41:57.836Z,0.20
2023-01-28T00:44:25.042Z,0.20
2023-01-28T00:46:52.541Z,0.10
2023-01-28T00:49:20.482Z,0.10
2023-01-28T00:51:49.194Z,0.10
2023-01-28T00:54:16.572Z,0.10
2023-01-28T00:56:43.813Z,0.20
2023-01-28T00:59:11.399Z,0.10
2023-01-28T01:01:38.715Z,0.10
2023-01-28T01:04:06.442Z,0.10
2023-01-28T01:06:37.326Z,0.10
2023-01-28T01:09:08.423Z,0.10
2023-01-28T01:11:36.576Z,0.10
2023-01-28T01:14:05.282Z,0.10
2023-01-28T01:16:33.565Z,0.10
2023-01-28T01:19:02.098Z,0.10
2023-01-28T01:21:30.911Z,0.10
2023-01-28T01:23:58.671Z,0.10
2023-01-28T01:26:27.925Z,0.10
2023-01-28T01:28:55.295Z,0.10
2023-01-28T01:31:23.325Z,0.00
2023-01-28T01:33:52.419Z,0.00
2023-01-28T01:36:22.048Z,0.10
2023-01-28T01:38:54.207Z,0.10
2023-01-28T01:41:30.496Z,0.10
2023-01-28T01:44:02.267Z,0.00
2023-01-28T01:46:42.403Z,0.00
2023-01-28T01:49:26.234Z,0.00
2023-01-28T01:52:01.622Z,0.00
2023-01-28T01:54:32.412Z,0.00
2023-01-28T01:57:00.810Z,0.00
2023-01-28T01:59:32.890Z,0.00
2023-01-28T02:02:07.283Z,0.10
2023-01-28T02:04:42.090Z,0.00
2023-01-28T02:07:12.525Z,0.00
2023-01-28T02:09:41.764Z,0.00
2023-01-28T02:12:18.105Z,0.00
2023-01-28T02:14:55.716Z,0.00
2023-01-28T02:17:23.437Z,0.00
2023-01-28T02:20:02.174Z,0.10
2023-01-28T02:22:57.250Z,0.10
2023-01-28T02:25:43.434Z,0.20
2023-01-28T02:28:34.361Z,0.10
2023-01-28T02:31:29.503Z,0.10
2023-01-28T02:33:59.645Z,0.10
2023-01-28T02:36:39.285Z,0.20
2023-01-28T02:39:15.864Z,0.20
2023-01-28T02:42:06.903Z,0.20
2023-01-28T02:44:34.499Z,0.20
2023-01-28T02:47:21.756Z,0.20
2023-01-28T02:49:55.244Z,0.10
2023-01-28T02:53:15.128Z,0.10
2023-01-28T02:55:54.361Z,0.10
2023-01-28T02:58:47.485Z,0.10
2023-01-28T03:01:22.289Z,0.10
2023-01-28T03:04:12.233Z,0.10
2023-01-28T03:06:47.115Z,0.10
2023-01-28T03:09:27.311Z,0.10
2023-01-28T03:12:25.489Z,0.10
2023-01-28T03:15:18.565Z,0.10
2023-01-28T03:18:11.548Z,0.00
2023-01-28T03:21:13.653Z,0.00
2023-01-28T03:24:22.629Z,0.00
2023-01-28T03:27:29.430Z,0.00
2023-01-28T03:30:21.964Z,0.10
2023-01-28T03:33:09.163Z,0.00
2023-01-28T03:35:57.366Z,-0.10
2023-01-28T03:38:34.341Z,-0.10
2023-01-28T03:41:03.872Z,-0.10
2023-01-28T03:43:31.584Z,-0.10
2023-01-28T03:46:00.034Z,-0.10
2023-01-28T03:48:29.235Z,-0.10
2023-01-28T03:50:56.816Z,-0.10
2023-01-28T03:53:24.167Z,-0.10
2023-01-28T03:55:53.635Z,0.00
2023-01-28T03:58:21.564Z,0.10
2023-01-28T04:00:49.077Z,0.10
2023-01-28T04:03:19.189Z,0.10
2023-01-28T04:06:00.038Z,0.20
2023-01-28T04:08:27.514Z,0.20
2023-01-28T04:10:55.216Z,0.30
2023-01-28T04:13:23.062Z,0.20
2023-01-28T04:15:50.499Z,0.20
2023-01-28T04:18:18.027Z,0.20
2023-01-28T04:20:45.316Z,0.30
2023-01-28T04:23:12.408Z,0.20
2023-01-28T04:25:39.669Z,0.20
2023-01-28T04:28:07.270Z,0.10
2023-01-28T04:30:35.245Z,0.10
2023-01-28T04:33:02.758Z,0.10
2023-01-28T04:35:30.288Z,0.20
2023-01-28T04:37:57.786Z,0.20
2023-01-28T04:40:25.143Z,0.20
2023-01-28T04:42:56.698Z,0.20
2023-01-28T04:45:24.454Z,0.20
2023-01-28T04:47:52.237Z,0.20
2023-01-28T04:50:19.544Z,0.20
2023-01-28T04:52:46.857Z,0.30
2023-01-28T04:55:14.358Z,0.30
2023-01-28T04:57:41.987Z,0.30
2023-01-28T05:00:10.206Z,0.30
2023-01-28T05:02:37.539Z,0.30
2023-01-28T05:05:09.164Z,0.20
2023-01-28T05:07:37.115Z,0.20
2023-01-28T05:10:05.490Z,0.20
2023-01-28T05:12:34.332Z,0.20
2023-01-28T05:15:02.355Z,0.20
2023-01-28T05:17:29.703Z,0.20
2023-01-28T05:19:57.520Z,0.20
2023-01-28T05:22:25.125Z,0.20
2023-01-28T05:24:52.703Z,0.10
2023-01-28T05:27:20.181Z,0.20
2023-01-28T05:29:47.904Z,0.20
2023-01-28T05:32:15.265Z,0.20
2023-01-28T05:34:42.736Z,0.20
2023-01-28T05:37:10.140Z,0.30
2023-01-28T05:39:37.559Z,0.30
2023-01-28T05:42:04.829Z,0.20
2023-01-28T05:44:32.696Z,0.30
2023-01-28T05:47:00.283Z,0.30
2023-01-28T05:49:27.570Z,0.30
2023-01-28T05:51:54.776Z,0.30
2023-01-28T05:54:22.419Z,0.20
2023-01-28T05:56:49.997Z,0.30
2023-01-28T05:59:18.267Z,0.30
2023-01-28T06:01:45.508Z,0.40
2023-01-28T06:04:13.118Z,0.30
2023-01-28T06:06:40.789Z,0.30
2023-01-28T06:09:08.197Z,0.20
2023-01-28T06:11:36.027Z,0.20
2023-01-28T06:14:03.352Z,0.20
2023-01-28T06:16:30.736Z,0.20
2023-01-28T06:18:58.019Z,0.20
2023-01-28T06:21:25.443Z,0.20
2023-01-28T06:23:52.805Z,0.20
2023-01-28T06:26:20.547Z,0.30
2023-01-28T06:28:48.133Z,0.30
2023-01-28T06:31:15.782Z,0.30
2023-01-28T06:33:43.072Z,0.30
2023-01-28T06:36:10.804Z,0.30
2023-01-28T06:38:38.783Z,0.30
2023-01-28T06:41:05.990Z,0.30
2023-01-28T06:43:33.374Z,0.20
2023-01-28T06:46:01.621Z,0.20
2023-01-28T06:48:29.072Z,0.20
2023-01-28T06:50:56.354Z,0.30
2023-01-28T06:53:23.748Z,0.30
2023-01-28T06:55:51.139Z,0.40
2023-01-28T06:58:18.572Z,0.40
2023-01-28T07:00:45.941Z,0.40
2023-01-28T07:03:13.758Z,0.40
2023-01-28T07:05:41.185Z,0.30
2023-01-28T07:08:08.832Z,0.40
2023-01-28T07:10:36.347Z,0.50
2023-01-28T07:13:03.849Z,0.40
2023-01-28T07:15:31.326Z,0.60
2023-01-28T07:17:59.572Z,0.60
2023-01-28T07:20:27.350Z,0.60
2023-01-28T07:22:55.199Z,0.60
2023-01-28T07:25:22.461Z,0.70
2023-01-28T07:27:51.252Z,0.60
2023-01-28T07:30:21.191Z,0.60
2023-01-28T07:32:52.895Z,0.60
2023-01-28T07:35:20.253Z,0.60
2023-01-28T07:37:58.908Z,0.60
2023-01-28T07:40:27.467Z,0.60
2023-01-28T07:42:56.577Z,0.70
2023-01-28T07:45:25.751Z,0.70
2023-01-28T07:47:57.421Z,0.70
2023-01-28T07:50:25.679Z,0.70
2023-01-28T07:52:52.924Z,0.70
2023-01-28T07:55:20.188Z,0.70
2023-01-28T07:57:55.458Z,0.60
2023-01-28T08:00:23.792Z,0.60
2023-01-28T08:02:56.096Z,0.60
2023-01-28T08:05:23.760Z,0.60
2023-01-28T08:07:51.384Z,0.60
2023-01-28T08:10:19.912Z,0.60
2023-01-28T08:13:01.052Z,0.70
2023-01-28T08:15:29.481Z,0.60
2023-01-28T08:17:59.793Z,0.60
2023-01-28T08:20:29.368Z,0.60
2023-01-28T08:23:13.609Z,0.80
2023-01-28T08:25:40.867Z,0.70
2023-01-28T08:28:09.215Z,0.70
2023-01-28T08:30:39.158Z,0.70
2023-01-28T08:33:10.712Z,0.80
2023-01-28T08:35:38.228Z,0.80
2023-01-28T08:38:07.852Z,0.90
2023-01-28T08:40:35.710Z,0.90
2023-01-28T08:43:03.410Z,1.00
2023-01-28T08:45:32.023Z,0.90
2023-01-28T08:48:12.122Z,0.90
2023-01-28T08:50:40.193Z,1.00
2023-01-28T08:53:15.937Z,1.00
2023-01-28T08:55:43.462Z,1.00
2023-01-28T08:58:14.252Z,0.90
2023-01-28T09:00:42.020Z,1.00
2023-01-28T09:03:09.337Z,1.00
2023-01-28T09:05:37.558Z,1.00
2023-01-28T09:08:07.100Z,1.00
2023-01-28T09:10:34.474Z,1.10
2023-01-28T09:13:09.863Z,1.10
2023-01-28T09:15:37.889Z,1.00
2023-01-28T09:18:06.163Z,1.10
2023-01-28T09:20:33.716Z,1.10
2023-01-28T09:23:01.672Z,1.20
2023-01-28T09:25:29.081Z,1.30
2023-01-28T09:27:56.422Z,1.30
2023-01-28T09:30:23.850Z,1.10
2023-01-28T09:32:52.914Z,1.10
2023-01-28T09:35:20.284Z,1.00
2023-01-28T09:37:48.328Z,1.00
2023-01-28T09:40:24.873Z,1.10
2023-01-28T09:43:23.088Z,1.20
2023-01-28T09:45:54.820Z,1.30
2023-01-28T09:48:33.075Z,1.30
2023-01-28T09:51:02.152Z,1.20
2023-01-28T09:53:32.733Z,1.10
2023-01-28T09:56:07.790Z,1.10
2023-01-28T09:58:35.380Z,1.20
2023-01-28T10:01:37.254Z,1.30
2023-01-28T10:04:32.389Z,1.30
2023-01-28T10:07:28.086Z,1.30
2023-01-28T10:10:17.142Z,1.20
2023-01-28T10:13:07.916Z,1.20
2023-01-28T10:16:08.195Z,1.30
2023-01-28T10:18:50.930Z,1.30
2023-01-28T10:22:02.118Z,1.30
2023-01-28T10:24:39.836Z,1.40
2023-01-28T10:27:21.878Z,1.60
2023-01-28T10:29:50.159Z,1.60
2023-01-28T10:32:23.483Z,1.60
2023-01-28T10:34:53.740Z,1.60
2023-01-28T10:37:21.886Z,1.70
2023-01-28T10:39:49.462Z,1.70
2023-01-28T10:42:29.468Z,1.80
2023-01-28T10:45:20.827Z,1.90
2023-01-28T10:48:02.422Z,1.90
2023-01-28T10:50:31.617Z,2.00
2023-01-28T10:53:01.011Z,2.10
2023-01-28T10:55:49.299Z,2.20
2023-01-28T10:58:37.338Z,2.30
2023-01-28T11:01:07.363Z,2.20
2023-01-28T11:03:37.615Z,2.10
2023-01-28T11:06:05.581Z,2.10
2023-01-28T11:08:44.431Z,2.30
2023-01-28T11:11:15.566Z,2.40
2023-01-28T11:13:54.419Z,2.50
2023-01-28T11:16:22.646Z,2.50
2023-01-28T11:18:55.332Z,2.60
2023-01-28T11:21:26.394Z,2.50
2023-01-28T11:24:05.799Z,2.60
2023-01-28T11:26:35.271Z,2.70
2023-01-28T11:29:02.778Z,2.60
2023-01-28T11:31:37.772Z,2.50
2023-01-28T11:34:06.297Z,2.50
2023-01-28T11:36:35.260Z,2.50
2023-01-28T11:39:17.538Z,2.50
2023-01-28T11:41:44.924Z,2.10
2023-01-28T11:44:23.446Z,2.10
2023-01-28T11:47:14.960Z,2.00
2023-01-28T11:50:02.596Z,1.90
2023-01-28T11:53:04.990Z,1.80
2023-01-28T11:55:32.410Z,1.70
2023-01-28T11:58:30.843Z,1.80
2023-01-28T12:01:17.187Z,1.80
2023-01-28T12:04:15.305Z,1.70
2023-01-28T12:06:59.858Z,1.70
2023-01-28T12:10:01.593Z,1.70
2023-01-28T12:12:58.697Z,1.70
2023-01-28T12:15:41.338Z,1.70
2023-01-28T12:18:27.296Z,1.70
2023-01-28T12:21:08.284Z,1.70
2023-01-28T12:24:04.472Z,1.70
2023-01-28T12:26:56.418Z,1.60
2023-01-28T12:29:33.089Z,1.70
2023-01-28T12:32:16.853Z,1.80
2023-01-28T12:35:00.587Z,1.80
2023-01-28T12:37:56.510Z,1.80
2023-01-28T12:40:31.385Z,1.80
2023-01-28T12:42:59.736Z,1.70
2023-01-28T12:45:40.908Z,1.80
2023-01-28T12:48:15.158Z,1.80
2023-01-28T12:50:52.123Z,1.70
2023-01-28T12:53:22.364Z,1.60
2023-01-28T12:55:56.475Z,1.50
2023-01-28T12:58:45.552Z,1.60
2023-01-28T13:01:16.950Z,1.60
2023-01-28T13:03:53.537Z,1.70
2023-01-28T13:06:25.110Z,1.70
2023-01-28T13:09:01.314Z,1.70
2023-01-28T13:11:35.400Z,1.70
2023-01-28T13:14:04.515Z,1.70
2023-01-28T13:16:37.931Z,1.70
2023-01-28T13:19:20.794Z,1.70
2023-01-28T13:21:50.579Z,1.70
2023-01-28T13:24:23.247Z,1.60
2023-01-28T13:26:53.299Z,1.70
2023-01-28T13:29:40.836Z,1.60
2023-01-28T13:32:30.119Z,1.50
2023-01-28T13:35:06.853Z,1.50
2023-01-28T13:37:39.171Z,1.60
2023-01-28T13:40:15.371Z,1.60
2023-01-28T13:42:43.158Z,1.60
2023-01-28T13:45:16.834Z,1.60
2023-01-28T13:47:51.555Z,1.70
2023-01-28T13:50:24.777Z,1.80
2023-01-28T13:53:04.058Z,2.00
2023-01-28T13:55:45.402Z,2.10
2023-01-28T13:58:43.932Z,2.10
2023-01-28T14:01:32.535Z,2.10
2023-01-28T14:04:45.041Z,2.20
2023-01-28T14:07:56.442Z,2.30
2023-01-28T14:10:42.382Z,2.40
2023-01-28T14:13:09.768Z,2.40
2023-01-28T14:16:04.717Z,2.30
2023-01-28T14:18:43.094Z,2.20
2023-01-28T14:21:22.541Z,2.20
2023-01-28T14:23:53.358Z,2.10
2023-01-28T14:26:39.266Z,2.00
2023-01-28T14:29:37.495Z,2.00
2023-01-28T14:32:11.945Z,2.00
2023-01-28T14:34:39.309Z,1.90
2023-01-28T14:37:09.836Z,1.90
2023-01-28T14:39:44.221Z,1.90
2023-01-28T14:42:19.152Z,1.90
2023-01-28T14:44:49.157Z,2.00
2023-01-28T14:47:37.656Z,1.90
2023-01-28T14:50:48.053Z,1.80
2023-01-28T14:53:52.880Z,1.70
2023-01-28T14:57:01.863Z,1.70
2023-01-28T14:59:38.065Z,1.70
2023-01-28T15:02:25.130Z,1.80
2023-01-28T15:04:53.787Z,1.80
2023-01-28T15:07:22.573Z,1.80
2023-01-28T15:10:08.647Z,1.80
2023-01-28T15:12:39.733Z,1.80
2023-01-28T15:15:38.810Z,1.70
2023-01-28T15:18:18.768Z,1.80
2023-01-28T15:20:48.504Z,1.80
2023-01-28T15:23:18.024Z,1.80
2023-01-28T15:25:45.786Z,1.80
2023-01-28T15:28:31.403Z,1.70
2023-01-28T15:30:59.841Z,1.70
2023-01-28T15:33:27.390Z,1.60
2023-01-28T15:35:56.712Z,1.50
2023-01-28T15:38:26.547Z,1.50
2023-01-28T15:41:00.383Z,1.60
2023-01-28T15:43:33.269Z,1.60
2023-01-28T15:46:01.626Z,1.50
2023-01-28T15:48:34.747Z,1.50
2023-01-28T15:51:08.162Z,1.60
2023-01-28T15:53:43.009Z,1.60
2023-01-28T15:56:14.565Z,1.60
2023-01-28T15:58:42.879Z,1.50
2023-01-28T16:01:10.394Z,1.50
2023-01-28T16:03:42.126Z,1.40
2023-01-28T16:06:19.230Z,1.40
2023-01-28T16:09:02.087Z,1.40
2023-01-28T16:11:34.020Z,1.50
2023-01-28T16:14:01.942Z,1.50
2023-01-28T16:16:38.694Z,1.50
2023-01-28T16:19:07.692Z,1.50
2023-01-28T16:21:44.954Z,1.60
2023-01-28T16:24:25.647Z,1.60
2023-01-28T16:27:04.756Z,1.60
2023-01-28T16:29:32.410Z,1.50
2023-01-28T16:32:01.143Z,1.50
2023-01-28T16:34:28.424Z,1.50
2023-01-28T16:37:00.217Z,1.50
2023-01-28T16:39:28.105Z,1.40
2023-01-28T16:41:57.029Z,1.30
2023-01-28T16:44:24.402Z,1.30
2023-01-28T16:46:51.923Z,1.20
2023-01-28T16:49:19.422Z,1.20
2023-01-28T16:51:47.038Z,1.20
2023-01-28T16:54:16.667Z,1.20
2023-01-28T16:56:46.281Z,1.10
2023-01-28T16:59:16.280Z,1.20
2023-01-28T17:01:44.848Z,1.20
2023-01-28T17:04:13.185Z,1.20
2023-01-28T17:06:44.860Z,1.20
2023-01-28T17:09:13.624Z,1.30
2023-01-28T17:11:41.435Z,1.30
2023-01-28T17:14:09.946Z,1.30
2023-01-28T17:16:37.489Z,1.40
2023-01-28T17:19:05.324Z,1.40
2023-01-28T17:21:32.823Z,1.40
2023-01-28T17:24:01.149Z,1.40
2023-01-28T17:26:31.297Z,1.30
2023-01-28T17:28:58.480Z,1.30
2023-01-28T17:31:26.805Z,1.30
2023-01-28T17:33:56.019Z,1.20
2023-01-28T17:36:24.929Z,1.20
2023-01-28T17:38:52.499Z,1.30
2023-01-28T17:41:20.103Z,1.30
2023-01-28T17:43:51.986Z,1.30
2023-01-28T17:46:19.974Z,1.20
2023-01-28T17:48:47.477Z,1.30
2023-01-28T17:51:19.246Z,1.30
2023-01-28T17:53:51.516Z,1.40
2023-01-28T17:56:21.897Z,1.30
2023-01-28T17:58:53.084Z,1.30
2023-01-28T18:01:22.044Z,1.40
2023-01-28T18:03:49.951Z,1.50
2023-01-28T18:06:17.669Z,1.50
2023-01-28T18:08:44.956Z,1.40
2023-01-28T18:11:14.545Z,1.40
2023-01-28T18:13:42.661Z,1.40
2023-01-28T18:16:18.153Z,1.30
2023-01-28T18:18:45.953Z,1.40
2023-01-28T18:21:52.750Z,1.30
2023-01-28T18:24:25.268Z,1.30
2023-01-28T18:26:55.568Z,1.40
2023-01-28T18:29:24.406Z,1.50
2023-01-28T18:31:54.504Z,1.50
2023-01-28T18:34:24.191Z,1.50
2023-01-28T18:36:51.804Z,1.50
2023-01-28T18:39:20.353Z,1.50
2023-01-28T18:41:47.649Z,1.50
2023-01-28T18:44:16.295Z,1.50
2023-01-28T18:46:43.614Z,1.50
2023-01-28T18:49:11.370Z,1.50
2023-01-28T18:51:38.797Z,1.50
2023-01-28T18:54:10.630Z,1.50
2023-01-28T18:56:38.928Z,1.50
2023-01-28T18:59:07.530Z,1.50
2023-01-28T19:01:35.345Z,1.50
2023-01-28T19:04:03.059Z,1.50
2023-01-28T19:06:31.502Z,1.50
2023-01-28T19:09:01.737Z,1.40
2023-01-28T19:11:30.384Z,1.40
2023-01-28T19:13:58.002Z,1.40
2023-01-28T19:16:25.881Z,1.40
2023-01-28T19:18:54.650Z,1.30
2023-01-28T19:21:22.952Z,1.30
2023-01-28T19:23:58.343Z,1.40
2023-01-28T19:26:26.974Z,1.30
2023-01-28T19:28:54.949Z,1.30
2023-01-28T19:31:23.662Z,1.30
2023-01-28T19:33:55.147Z,1.30
2023-01-28T19:36:23.342Z,1.30
2023-01-28T19:38:50.676Z,1.20
2023-01-28T19:41:17.955Z,1.30
2023-01-28T19:43:45.817Z,1.20
2023-01-28T19:46:16.958Z,1.10
2023-01-28T19:48:45.180Z,1.10
2023-01-28T19:51:14.024Z,1.10
2023-01-28T19:53:42.798Z,1.10
2023-01-28T19:56:12.657Z,1.20
2023-01-28T19:58:42.237Z,1.20
2023-01-28T20:01:14.590Z,1.20
2023-01-28T20:03:42.768Z,1.20
2023-01-28T20:06:15.945Z,1.20
2023-01-28T20:08:44.396Z,1.10
2023-01-28T20:11:16.205Z,1.20
2023-01-28T20:13:45.560Z,1.10
2023-01-28T20:16:20.984Z,1.10
2023-01-28T20:19:03.794Z,1.20
2023-01-28T20:21:32.417Z,1.20
2023-01-28T20:24:01.536Z,1.30
2023-01-28T20:26:34.775Z,1.30
2023-01-28T20:29:10.907Z,1.30
2023-01-28T20:31:40.189Z,1.30
2023-01-28T20:34:08.153Z,1.30
2023-01-28T20:36:35.392Z,1.30
2023-01-28T20:39:02.899Z,1.20
2023-01-28T20:41:30.079Z,1.10
2023-01-28T20:43:57.705Z,1.10
2023-01-28T20:46:28.636Z,1.10
2023-01-28T20:48:58.241Z,1.10
2023-01-28T20:51:30.779Z,1.10
2023-01-28T20:53:59.241Z,1.20
2023-01-28T20:56:28.027Z,1.10
2023-01-28T20:58:57.978Z,1.10
2023-01-28T21:01:28.527Z,1.10
2023-01-28T21:03:56.495Z,1.00
2023-01-28T21:06:25.181Z,0.90
2023-01-28T21:08:53.197Z,0.90
2023-01-28T21:11:22.088Z,1.00
2023-01-28T21:13:49.507Z,1.00
2023-01-28T21:16:17.971Z,1.00
2023-01-28T21:18:45.581Z,1.00
2023-01-28T21:21:20.766Z,1.00
2023-01-28T21:23:48.340Z,1.00
2023-01-28T21:26:16.256Z,0.90
2023-01-28T21:28:44.159Z,1.00
2023-01-28T21:31:20.425Z,1.00
2023-01-28T21:33:52.778Z,0.90
2023-01-28T21:36:20.626Z,0.90
2023-01-28T21:38:52.476Z,0.90
2023-01-28T21:41:20.219Z,0.80
2023-01-28T21:43:53.723Z,0.80
2023-01-28T21:46:26.957Z,0.80
2023-01-28T21:48:56.223Z,0.80
2023-01-28T21:52:01.909Z,0.90
2023-01-28T21:54:29.255Z,0.80
2023-01-28T21:56:56.579Z,0.70
2023-01-28T21:59:30.200Z,0.70
2023-01-28T22:02:10.639Z,0.80
2023-01-28T22:04:43.617Z,0.80
2023-01-28T22:07:13.328Z,0.90
2023-01-28T22:09:41.092Z,0.90
2023-01-28T22:12:08.394Z,1.00
2023-01-28T22:14:36.781Z,1.00
2023-01-28T22:17:07.521Z,1.00
2023-01-28T22:19:34.949Z,1.00
2023-01-28T22:22:02.113Z,1.10
2023-01-28T22:24:30.792Z,1.10
2023-01-28T22:26:58.263Z,1.10
2023-01-28T22:29:26.519Z,1.10
2023-01-28T22:31:54.922Z,0.90
2023-01-28T22:34:23.300Z,0.90
2023-01-28T22:36:51.190Z,0.90
2023-01-28T22:39:19.266Z,0.90
2023-01-28T22:41:46.972Z,0.90
2023-01-28T22:44:14.867Z,1.00
2023-01-28T22:46:42.657Z,0.80
2023-01-28T22:49:12.245Z,0.80
2023-01-28T22:51:40.357Z,0.80
2023-01-28T22:54:08.102Z,0.80
2023-01-28T22:56:35.488Z,0.90
2023-01-28T22:59:03.998Z,0.90
2023-01-28T23:01:31.540Z,0.90
2023-01-28T23:03:59.340Z,0.80
2023-01-28T23:06:28.420Z,0.80
2023-01-28T23:08:56.693Z,0.70
2023-01-28T23:11:28.479Z,0.70
2023-01-28T23:14:19.158Z,0.70
2023-01-28T23:17:05.568Z,0.70
2023-01-28T23:19:51.856Z,0.70
2023-01-28T23:22:49.895Z,0.60
2023-01-28T23:25:17.565Z,0.60
2023-01-28T23:27:45.559Z,0.60
2023-01-28T23:30:14.729Z,0.60
2023-01-28T23:32:47.295Z,0.60
2023-01-28T23:35:14.927Z,0.60
2023-01-28T23:37:42.552Z,0.60
2023-01-28T23:40:10.450Z,0.50
2023-01-28T23:42:37.855Z,0.60
2023-01-28T23:45:06.385Z,0.60
2023-01-28T23:47:33.692Z,0.70
2023-01-28T23:50:01.178Z,0.70
2023-01-28T23:52:28.513Z,0.70
2023-01-28T23:54:56.272Z,0.70
2023-01-28T23:57:23.812Z,0.70
2023-01-28T23:59:51.567Z,0.70
